Accueil
METAR-TAF:

METAR-TAF

Aéroports :

Bangui, République centrafricaine

Aéroport international de Bangui

latitude: 04-24N, longitude: 018-31E, altitude: 365 m

Observation

Le bulletin a été fait il y a 19 minutes, à 05:00 UTC
Vent 2 kt de direction variable
Température 22°C
Humidité 100%
Pression 1011 hPa
Visibilité: 8000 m
Quelques nuages à une hauteur de 700 ft
Quelques nuages à une hauteur de 3300 ft, Cumulonimbus.

METAR: FEFF 260500Z VRB02KT 8000 FEW007 FEW033CB 22/22 Q1011 NOSIG

Heure: 06:19 (05:19 UTC)


TAF: absent

Observations et prévisions météorologiques de plus de 4000 aéroports (messages METAR et TAF).

Les stations disponibles sont représentées par des disques jaunes et rouges sur la carte.

Passer la souris dessus pour voir le nom de la station.

Cliquer dessus pour voir les observations et prévisions météorologiques.

Pour changer de carte: cliquez sur les boutons verts avec une croix noire pour zoomer, sur le bouton vert avec un tiret pour effectuer un zoom arrière, ou sur les flèches vertes pour les cartes adjacentes.


METAR-TAF: